Maysfield, Texas
Current Conditions -  °F | °C
As of 5:15 PM on Sunday 21 Dec 2014 (Local Time) from KT35 Reporting Station
Overcast Overcast  
Wind Chill: 54°   Ceiling: 1800
Heat Index: 54°   Visibility: 10mi
Dew Point: 49°   Wind: 6mph
Humidity: 82%   Direction: 160°SSE
Pressure: 29.89"   Gusts: NA
Location:  30.9°N, 96.85°W
Report Text: KT35 212315Z AUTO 16005KT 10SM OVC018 12/09 A2989 RMK AO2 T01230094
Loading
Personal Weather Stations






























Interactive Weather Map New forecast layout! Learn more

10-Day Weather Forecast

Advertisements
Track Severe Weather on mobile